首页
METAR-TAF:

METAR-TAF

机场 :

威尔克斯-巴里 / 斯克蘭頓, 宾夕法尼亚州, 美国

纬度: 41-20-20N, 经度: 075-43-36W, 海拔: 293米

当前天气观测

该预报发布于40分钟前的20:54 UTC
风速4节,风向多变
温度 26°C
湿度 65%
气压 1008 hPa
能見度: 16.1公里
散云层高于2300英尺
阴天层高于11000英尺

METAR: KAVP 192054Z VRB04KT 10SM SCT023 OVC110 26/19 A2976 RMK AO2 RAB1957E07 SLP069 P0000 60000 T02560194 58015 $

时间: 17:34 (21:34 UTC)

预报

该预报发布于7分钟前的21:27 UTC
预报有效从19日的 21点(UTC)到 20日的 18点(UTC)
风速4节,风向多变
能見度: 10公里
散云层高于2500英尺
多云层高于10000英尺
短暂存在
从 19日的 23点(UTC)到 20日的 01点(UTC)
能見度: 6.4公里
阴天层高于2500英尺, 积雨云.
雷暴, 小雨
从 20日的 0400点(UTC)
风速3节,风向多变
能見度: 8.0公里
多云层高于2500英尺
轻雾
从 20日的 0900点(UTC)
风速节,风向
能見度: 10公里
多云层高于1200英尺
从 20日的 1100点(UTC)
风速节,风向
能見度: 10公里
阴天层高于700英尺
从 20日的 1400点(UTC)
风速4节,风向多变
能見度: 10公里
阴天层高于1200英尺
小阵雨

TAF: KAVP 192127Z 1921/2018 VRB04KT P6SM SCT025 BKN100 TEMPO 1923/2001 4SM -TSRA OVC025CB FM200400 VRB03KT 5SM BR BKN025 FM200900 00000KT P6SM BKN012 FM201100 00000KT P6SM OVC007 FM201400 VRB04KT P6SM -SHRA OVC012

超过4000个机场的气象观测和天气预报(METAR&TAF报告)。

可查询的气象台以黄色和红色小点在地图上表示。

将鼠标移到小点上方,可查看气象台名称。

然后点击查看天气观测和预报。

如需切换地图:点击带黑十字的绿色按钮放大地图;点击带横线的绿色按钮缩小地图;或者点击绿色箭头查看邻近地区的地图。


METAR-TAF: